Time;durP1;ratioP1;P1;durP2;ratioP2;P2;SDS_P1;SDS_P2;PMS_P1;PMS_P2;Temp;Humidity;BMP_temperature;BMP_pressure;BME280_temperature;BME280_humidity;BME280_pressure;Samples;Min_cycle;Max_cycle;Signal;HPM_P1;HPM_P2
2023/07/10 00:00:24;;;;;;;20.65;12.20;;;;;;;21.61;100.00;101903.91;4933194;29;20043;-69
2023/07/10 00:02:51;;;;;;;16.92;10.77;;;;;;;21.57;100.00;101900.78;4924022;29;20772;-71
2023/07/10 00:05:21;;;;;;;16.05;11.45;;;;;;;21.48;100.00;101888.59;4928469;29;20881;-71
2023/07/10 00:07:48;;;;;;;16.83;11.38;;;;;;;21.51;100.00;101888.22;4922281;29;20061;-68
2023/07/10 00:10:16;;;;;;;16.42;11.07;;;;;;;21.47;100.00;101882.44;4932820;29;20055;-70
2023/07/10 00:12:44;;;;;;;17.35;11.30;;;;;;;21.49;100.00;101890.25;4908510;29;20110;-71
2023/07/10 00:15:28;;;;;;;;;;;;;;;21.48;100.00;101880.59;4937125;29;20048;-71
2023/07/10 00:17:55;;;;;;;14.63;10.98;;;;;;;21.48;100.00;101896.59;4919787;29;20010;-71
2023/07/10 00:20:27;;;;;;;17.23;11.07;;;;;;;21.45;100.00;101895.16;4924586;29;20060;-73
2023/07/10 00:22:54;;;;;;;18.15;11.65;;;;;;;21.37;100.00;101903.25;4928524;29;20067;-72
2023/07/10 00:25:20;;;;;;;22.17;11.88;;;;;;;21.30;100.00;101900.53;4905781;29;20517;-70
2023/07/10 00:27:49;;;;;;;19.75;11.75;;;;;;;21.32;100.00;101908.34;4931723;29;20056;-70
2023/07/10 00:30:22;;;;;;;24.90;11.93;;;;;;;21.30;100.00;101902.38;4915697;29;20147;-69
2023/07/10 00:32:54;;;;;;;15.32;11.40;;;;;;;21.24;100.00;101903.13;4922703;29;20055;-72
2023/07/10 00:35:23;;;;;;;18.23;11.48;;;;;;;21.27;100.00;101900.91;4922376;28;20552;-72
2023/07/10 00:38:01;;;;;;;14.23;11.55;;;;;;;21.24;100.00;101900.47;4933206;29;20056;-71
2023/07/10 00:40:30;;;;;;;18.52;12.27;;;;;;;21.16;100.00;101897.94;4928919;28;20059;-71
2023/07/10 00:43:04;;;;;;;17.60;11.27;;;;;;;21.24;100.00;101901.28;4933739;29;20056;-71
2023/07/10 00:45:31;;;;;;;14.68;10.85;;;;;;;21.22;100.00;101905.16;4924700;29;20084;-71
2023/07/10 00:48:30;;;;;;;19.77;12.65;;;;;;;21.17;100.00;101896.91;4921354;29;20779;-72
2023/07/10 00:51:01;;;;;;;19.48;10.50;;;;;;;21.18;100.00;101898.56;4930966;29;20051;-71
2023/07/10 00:53:36;;;;;;;18.13;10.25;;;;;;;21.14;100.00;101916.78;4926970;29;20062;-70
2023/07/10 00:56:06;;;;;;;14.75;10.60;;;;;;;21.21;100.00;101915.03;4932316;29;20054;-71
2023/07/10 00:58:38;;;;;;;14.77;9.82;;;;;;;21.23;100.00;101910.31;4920973;29;20110;-72
2023/07/10 01:01:13;;;;;;;18.33;10.25;;;;;;;21.25;100.00;101905.63;4926873;29;20044;-64
2023/07/10 01:03:41;;;;;;;16.98;10.40;;;;;;;21.30;100.00;101897.03;4924753;28;20070;-64
2023/07/10 01:06:26;;;;;;;16.02;10.18;;;;;;;21.32;100.00;101905.66;4931113;29;20476;-66
2023/07/10 01:09:18;;;;;;;18.10;10.98;;;;;;;21.27;100.00;101900.91;4929720;29;20051;-63
2023/07/10 01:11:46;;;;;;;15.27;9.90;;;;;;;21.23;100.00;101902.31;4922758;29;20051;-65
2023/07/10 01:14:15;;;;;;;17.35;9.55;;;;;;;21.28;100.00;101899.06;4926861;29;20479;-65
2023/07/10 01:16:41;;;;;;;;;;;;;;;21.28;100.00;101896.41;4924879;29;20094;-65
2023/07/10 01:19:21;;;;;;;18.48;10.10;;;;;;;21.25;100.00;101892.28;4934975;29;19972;-67
2023/07/10 01:21:50;;;;;;;15.73;10.40;;;;;;;21.25;100.00;101892.28;4904523;29;21152;-64
2023/07/10 01:24:17;;;;;;;20.10;10.85;;;;;;;21.22;100.00;101892.66;4932632;29;20424;-65
2023/07/10 01:26:43;;;;;;;15.18;9.52;;;;;;;21.25;100.00;101891.47;4921781;29;20059;-65
2023/07/10 01:29:24;;;;;;;18.10;10.55;;;;;;;21.23;100.00;101896.97;4930317;29;20465;-64
2023/07/10 01:31:53;;;;;;;13.68;9.38;;;;;;;21.24;100.00;101906.63;4925310;29;20048;-64
2023/07/10 01:34:37;;;;;;;18.23;8.98;;;;;;;21.15;100.00;101905.13;4930459;29;20146;-65
2023/07/10 01:37:05;;;;;;;14.27;9.13;;;;;;;21.10;100.00;101905.66;4926875;29;20052;-65
2023/07/10 01:39:42;;;;;;;14.52;8.75;;;;;;;21.09;100.00;101908.53;4923641;29;20047;-64
2023/07/10 01:42:09;;;;;;;15.15;8.90;;;;;;;21.02;100.00;101907.66;4930886;29;20052;-65
2023/07/10 01:44:39;;;;;;;14.68;9.05;;;;;;;21.02;100.00;101902.31;4923984;29;20166;-67
2023/07/10 01:47:07;;;;;;;17.70;9.15;;;;;;;20.99;100.00;101908.00;4914812;29;20412;-64
2023/07/10 01:49:39;;;;;;;13.75;8.02;;;;;;;20.97;100.00;101910.84;4917889;29;20055;-66
2023/07/10 01:52:08;;;;;;;13.95;7.38;;;;;;;21.00;100.00;101918.50;4927773;29;20047;-65
2023/07/10 01:54:35;;;;;;;13.63;8.25;;;;;;;20.94;100.00;101917.41;4923430;29;20044;-65
2023/07/10 01:57:03;;;;;;;11.93;7.70;;;;;;;20.96;100.00;101916.41;4927993;29;20056;-64
2023/07/10 01:59:30;;;;;;;17.92;7.53;;;;;;;20.90;100.00;101915.31;4931365;29;20087;-64
2023/07/10 02:01:57;;;;;;;13.85;7.18;;;;;;;20.93;100.00;101918.44;4924519;29;20553;-67
2023/07/10 02:04:24;;;;;;;12.30;7.40;;;;;;;20.92;100.00;101919.44;4915026;29;20497;-66
2023/07/10 02:06:54;;;;;;;12.88;5.82;;;;;;;20.85;100.00;101923.03;4926288;29;20131;-65
2023/07/10 02:09:26;;;;;;;12.38;6.45;;;;;;;20.88;100.00;101920.00;4931020;29;20608;-65
2023/07/10 02:11:54;;;;;;;12.30;6.07;;;;;;;20.88;100.00;101912.00;4925551;29;20075;-67
2023/07/10 02:14:21;;;;;;;;;;;;;;;20.91;100.00;101908.94;4924970;29;20083;-64
2023/07/10 02:16:48;;;;;;;9.82;5.65;;;;;;;20.92;100.00;101902.63;4930805;29;20375;-65
2023/07/10 02:19:14;;;;;;;10.33;5.33;;;;;;;20.90;100.00;101896.66;4925940;29;20527;-65
2023/07/10 02:21:41;;;;;;;10.07;6.03;;;;;;;20.87;100.00;101889.84;4928978;29;20062;-65
2023/07/10 02:24:08;;;;;;;8.75;5.32;;;;;;;20.87;100.00;101907.69;4923302;28;20122;-65
2023/07/10 02:26:34;;;;;;;10.55;5.50;;;;;;;20.82;100.00;101904.78;4927099;29;20058;-65
2023/07/10 02:29:01;;;;;;;12.45;5.80;;;;;;;20.80;100.00;101906.81;4924716;29;20062;-68
2023/07/10 02:31:27;;;;;;;10.45;5.60;;;;;;;20.78;100.00;101906.13;4928120;29;20126;-67
2023/07/10 02:33:55;;;;;;;9.82;5.18;;;;;;;20.82;100.00;101908.25;4933209;29;20059;-71
2023/07/10 02:36:22;;;;;;;12.23;5.67;;;;;;;20.84;100.00;101916.06;4930774;29;20051;-71
2023/07/10 02:38:49;;;;;;;8.90;5.22;;;;;;;20.85;100.00;101915.88;4930225;29;20118;-73
2023/07/10 02:41:16;;;;;;;13.75;5.53;;;;;;;20.90;100.00;101910.81;4923175;29;20075;-73
2023/07/10 02:43:42;;;;;;;11.48;4.75;;;;;;;20.85;100.00;101907.84;4927090;29;20047;-70
2023/07/10 02:46:09;;;;;;;9.43;4.60;;;;;;;20.85;100.00;101920.38;4927312;29;20262;-73
2023/07/10 02:48:36;;;;;;;9.35;4.07;;;;;;;20.82;100.00;101926.09;4934628;29;20138;-72
2023/07/10 02:51:02;;;;;;;9.38;4.05;;;;;;;20.73;100.00;101923.53;4935018;29;20482;-72
2023/07/10 02:53:29;;;;;;;10.90;3.83;;;;;;;20.69;100.00;101932.91;4927324;29;20043;-70
2023/07/10 02:55:55;;;;;;;8.55;3.78;;;;;;;20.73;100.00;101928.84;4926542;29;20086;-72
2023/07/10 02:58:22;;;;;;;8.30;4.20;;;;;;;20.68;100.00;101931.28;4927772;29;20066;-72
2023/07/10 03:00:59;;;;;;;9.38;4.35;;;;;;;20.68;100.00;101939.28;4933517;29;20048;-70
2023/07/10 03:03:26;;;;;;;8.45;4.32;;;;;;;20.65;100.00;101941.47;4928706;29;20092;-73
2023/07/10 03:05:57;;;;;;;10.55;4.88;;;;;;;20.54;100.00;101945.38;4934241;29;20392;-73
2023/07/10 03:08:24;;;;;;;10.52;4.72;;;;;;;20.50;100.00;101944.97;4925027;29;20695;-73
2023/07/10 03:11:02;;;;;;;10.07;3.88;;;;;;;20.54;100.00;101940.06;4905111;29;20052;-73
2023/07/10 03:13:29;;;;;;;13.50;4.50;;;;;;;20.58;100.00;101938.72;4933425;29;20056;-72
2023/07/10 03:15:58;;;;;;;12.15;4.15;;;;;;;20.53;100.00;101933.91;4928847;29;20087;-73
2023/07/10 03:18:24;;;;;;;8.48;3.90;;;;;;;20.50;100.00;101939.63;4938901;29;20058;-72
2023/07/10 03:20:51;;;;;;;7.47;3.90;;;;;;;20.54;100.00;101946.25;4928686;28;20087;-73
2023/07/10 03:23:17;;;;;;;7.50;3.58;;;;;;;20.49;100.00;101950.47;4935054;29;20059;-72
2023/07/10 03:25:44;;;;;;;6.50;3.92;;;;;;;20.42;100.00;101958.34;4931250;29;20781;-72
2023/07/10 03:28:10;;;;;;;6.80;3.55;;;;;;;20.42;100.00;101960.19;4930445;28;20569;-70
2023/07/10 03:30:39;;;;;;;8.20;4.05;;;;;;;20.21;100.00;101959.09;4932568;29;20048;-70
2023/07/10 03:33:06;;;;;;;;;;;;;;;20.23;100.00;101961.56;4932733;29;20115;-73
2023/07/10 03:35:32;;;;;;;9.30;4.47;;;;;;;20.11;100.00;101959.38;4937639;29;19927;-72
2023/07/10 03:37:59;;;;;;;7.60;4.18;;;;;;;20.12;100.00;101963.66;4908846;29;20051;-72
2023/07/10 03:40:25;;;;;;;7.93;4.55;;;;;;;20.09;100.00;101969.38;4931338;29;20066;-73
2023/07/10 03:42:52;;;;;;;10.32;4.97;;;;;;;20.06;100.00;101967.06;4927115;29;20048;-73
2023/07/10 03:45:18;;;;;;;10.32;4.88;;;;;;;20.04;100.00;101974.41;4927205;29;20048;-73
2023/07/10 03:47:44;;;;;;;11.48;5.45;;;;;;;20.01;100.00;101973.94;4932829;29;20449;-72
2023/07/10 03:50:12;;;;;;;10.55;5.22;;;;;;;20.02;100.00;101973.75;4920508;29;20126;-72
2023/07/10 03:52:39;;;;;;;9.30;5.00;;;;;;;20.03;100.00;101979.91;4929205;29;20052;-72
2023/07/10 03:55:05;;;;;;;8.82;5.57;;;;;;;19.98;100.00;101984.97;4929609;29;20059;-73
2023/07/10 03:57:32;;;;;;;8.93;5.30;;;;;;;19.98;100.00;101983.13;4933016;29;20047;-73
2023/07/10 03:59:58;;;;;;;11.93;6.47;;;;;;;19.99;100.00;101979.44;4934646;29;20055;-70
2023/07/10 04:02:25;;;;;;;10.23;5.40;;;;;;;20.01;100.00;101980.09;4930730;29;20086;-72
2023/07/10 04:04:51;;;;;;;10.18;6.30;;;;;;;19.97;100.00;101983.31;4924305;29;20079;-72
2023/07/10 04:07:18;;;;;;;8.95;5.75;;;;;;;19.92;100.00;101989.19;4925463;29;20512;-73
2023/07/10 04:09:44;;;;;;;11.85;6.15;;;;;;;19.94;100.00;101990.66;4927440;29;20086;-73
2023/07/10 04:12:11;;;;;;;13.27;6.28;;;;;;;19.97;100.00;101991.28;4923161;28;20086;-73
2023/07/10 04:14:38;;;;;;;11.13;6.22;;;;;;;20.01;100.00;101984.59;4934345;29;20075;-70
2023/07/10 04:17:04;;;;;;;12.27;6.30;;;;;;;19.96;100.00;101985.16;4929107;29;20109;-71
2023/07/10 04:19:31;;;;;;;12.25;6.45;;;;;;;19.91;100.00;101983.00;4924573;28;20047;-73
2023/07/10 04:21:58;;;;;;;10.48;5.45;;;;;;;19.87;100.00;101987.03;4935130;29;20052;-73
2023/07/10 04:24:24;;;;;;;11.38;6.25;;;;;;;19.81;100.00;101987.75;4927004;29;20693;-74
2023/07/10 04:26:51;;;;;;;9.68;5.93;;;;;;;19.74;100.00;101992.97;4932896;29;20082;-73
2023/07/10 04:29:18;;;;;;;12.38;5.70;;;;;;;19.70;100.00;101994.31;4925431;29;20051;-73
2023/07/10 04:31:44;;;;;;;8.77;5.22;;;;;;;19.72;100.00;101997.66;4931460;29;20044;-73
2023/07/10 04:34:11;;;;;;;10.88;5.97;;;;;;;19.70;100.00;102006.81;4935090;29;20107;-71
2023/07/10 04:36:38;;;;;;;9.38;5.40;;;;;;;19.74;100.00;102011.63;4927563;29;20512;-72
2023/07/10 04:39:04;;;;;;;9.38;5.05;;;;;;;19.77;100.00;102010.41;4933863;29;20051;-72
2023/07/10 04:41:31;;;;;;;9.70;5.70;;;;;;;19.71;100.00;102014.63;4927815;28;20168;-70
2023/07/10 04:43:58;;;;;;;9.20;4.65;;;;;;;19.74;100.00;102008.94;4923633;29;20067;-69
2023/07/10 04:46:24;;;;;;;9.65;5.20;;;;;;;19.66;100.00;102011.66;4928400;29;20056;-72
2023/07/10 04:48:51;;;;;;;8.52;4.70;;;;;;;19.68;100.00;102009.63;4934649;29;20056;-71
2023/07/10 04:51:18;;;;;;;9.10;4.30;;;;;;;19.60;100.00;102020.34;4932958;29;20461;-73
2023/07/10 04:53:45;;;;;;;7.18;4.32;;;;;;;19.59;100.00;102010.69;4924514;29;20063;-71
2023/07/10 04:56:14;;;;;;;10.50;4.53;;;;;;;19.56;100.00;102013.69;4927873;29;20065;-74
2023/07/10 04:58:52;;;;;;;6.80;3.92;;;;;;;19.53;100.00;102006.09;4920891;29;20055;-72
2023/07/10 05:01:21;;;;;;;11.75;4.07;;;;;;;19.48;100.00;102003.97;4931077;29;20055;-73
2023/07/10 05:03:48;;;;;;;7.70;4.15;;;;;;;19.59;100.00;102017.84;4918360;29;20100;-72
2023/07/10 05:06:16;;;;;;;8.10;3.75;;;;;;;19.63;100.00;102008.50;4932056;29;20062;-72
2023/07/10 05:08:42;;;;;;;4.80;3.27;;;;;;;19.64;100.00;102007.50;4926094;29;20059;-72
2023/07/10 05:11:09;;;;;;;10.55;4.07;;;;;;;19.54;100.00;102013.91;4921308;29;20536;-74
2023/07/10 05:13:36;;;;;;;7.40;3.72;;;;;;;19.51;100.00;102019.56;4926194;29;20478;-73
2023/07/10 05:16:03;;;;;;;6.15;3.47;;;;;;;19.49;100.00;102023.41;4925166;29;20047;-74
2023/07/10 05:18:30;;;;;;;7.57;3.93;;;;;;;19.36;100.00;102022.13;4930391;29;20417;-75
2023/07/10 05:20:58;;;;;;;7.60;3.65;;;;;;;19.39;100.00;102015.66;4924700;29;20087;-73
2023/07/10 05:23:25;;;;;;;;;;;;;;;19.33;100.00;102019.00;4932542;29;20043;-70
2023/07/10 05:26:02;;;;;;;7.23;3.90;;;;;;;19.32;100.00;102012.03;4928091;29;20021;-74
2023/07/10 05:28:30;;;;;;;10.73;4.60;;;;;;;19.29;100.00;102015.06;4929810;29;20048;-74
2023/07/10 05:31:01;;;;;;;6.90;3.60;;;;;;;19.20;100.00;102019.56;4918212;29;20130;-74
2023/07/10 05:33:30;;;;;;;9.68;3.85;;;;;;;19.20;100.00;102016.91;4928453;28;20059;-73
2023/07/10 05:35:58;;;;;;;7.72;3.75;;;;;;;19.30;100.00;102020.19;4938292;29;20063;-73
2023/07/10 05:38:31;;;;;;;11.85;3.72;;;;;;;19.34;100.00;102024.13;4928967;29;20060;-74
2023/07/10 05:40:59;;;;;;;10.30;4.05;;;;;;;19.39;100.00;102030.78;4934965;29;20055;-72
2023/07/10 05:43:31;;;;;;;9.48;4.20;;;;;;;19.38;100.00;102021.13;4915699;29;20047;-73
2023/07/10 05:45:58;;;;;;;8.27;4.95;;;;;;;19.33;100.00;102027.81;4933847;29;20090;-74
2023/07/10 05:48:25;;;;;;;9.20;4.68;;;;;;;19.29;100.00;102029.19;4936485;29;20047;-73
2023/07/10 05:50:53;;;;;;;7.53;4.18;;;;;;;19.23;100.00;102021.91;4919647;29;20082;-74
2023/07/10 05:53:20;;;;;;;10.55;4.20;;;;;;;19.22;100.00;102022.88;4936205;29;20465;-73
2023/07/10 05:55:51;;;;;;;12.95;4.72;;;;;;;19.21;100.00;102029.22;4927072;29;20077;-73
2023/07/10 05:58:21;;;;;;;13.65;4.38;;;;;;;19.17;100.00;102034.06;4941098;29;20047;-73
2023/07/10 06:00:50;;;;;;;10.50;4.40;;;;;;;19.13;100.00;102030.09;4931126;29;20086;-72
2023/07/10 06:03:16;;;;;;;;;;;;;;;19.23;100.00;102029.03;4932208;29;20067;-72
2023/07/10 06:05:55;;;;;;;12.73;4.70;;;;;;;19.14;100.00;102023.75;4937499;29;19981;-73
2023/07/10 06:08:24;;;;;;;13.70;5.07;;;;;;;19.06;100.00;102031.78;4933544;29;20052;-73
2023/07/10 06:10:51;;;;;;;8.13;3.97;;;;;;;19.13;100.00;102034.56;4937821;29;20084;-73
2023/07/10 06:13:17;;;;;;;8.75;3.80;;;;;;;19.19;100.00;102033.88;4934089;29;20055;-71
2023/07/10 06:15:48;;;;;;;11.15;3.92;;;;;;;19.25;100.00;102027.00;4939862;29;20107;-73
2023/07/10 06:18:15;;;;;;;9.93;3.38;;;;;;;19.29;100.00;102023.84;4933381;28;20047;-73
2023/07/10 06:20:42;;;;;;;8.98;3.47;;;;;;;19.29;100.00;102029.19;4931380;29;20508;-74
2023/07/10 06:23:09;;;;;;;11.43;3.22;;;;;;;19.29;100.00;102025.69;4930911;29;20609;-71
2023/07/10 06:25:41;;;;;;;8.10;3.13;;;;;;;19.35;100.00;102031.13;4931519;29;20052;-71
2023/07/10 06:28:07;;;;;;;7.32;3.05;;;;;;;19.39;100.00;102030.78;4933441;29;20052;-69
2023/07/10 06:30:37;;;;;;;8.07;3.30;;;;;;;19.40;100.00;102035.91;4927103;29;20062;-70
2023/07/10 06:33:04;;;;;;;7.95;2.90;;;;;;;19.45;100.00;102040.72;4929639;29;20052;-71
2023/07/10 06:35:31;;;;;;;7.65;2.78;;;;;;;19.36;100.00;102029.28;4918969;29;20066;-73
2023/07/10 06:37:57;;;;;;;12.13;2.80;;;;;;;19.33;100.00;102038.47;4931507;29;20131;-73
2023/07/10 06:40:23;;;;;;;8.40;2.75;;;;;;;19.37;100.00;102036.28;4925115;28;20055;-71
2023/07/10 06:42:50;;;;;;;7.80;2.70;;;;;;;19.39;100.00;102033.44;4935638;29;20050;-72
2023/07/10 06:45:17;;;;;;;7.82;2.55;;;;;;;19.48;100.00;102032.38;4935306;29;20052;-72
2023/07/10 06:47:45;;;;;;;5.68;2.53;;;;;;;19.53;100.00;102040.69;4925002;29;20488;-73
2023/07/10 06:50:14;;;;;;;11.45;3.15;;;;;;;19.53;100.00;102051.31;4924422;29;20159;-73
2023/07/10 06:52:43;;;;;;;5.93;2.13;;;;;;;19.63;100.00;102046.59;4926618;28;20055;-72
2023/07/10 06:55:17;;;;;;;6.55;2.45;;;;;;;19.61;100.00;102048.59;4934231;29;20430;-73
2023/07/10 06:57:44;;;;;;;7.80;2.03;;;;;;;19.65;100.00;102055.22;4925230;29;20047;-73
2023/07/10 07:00:14;;;;;;;4.63;1.87;;;;;;;19.74;100.00;102059.53;4933198;29;20054;-73
2023/07/10 07:02:41;;;;;;;8.32;1.80;;;;;;;19.80;100.00;102054.47;4927668;29;20043;-70
2023/07/10 07:05:07;;;;;;;7.18;2.17;;;;;;;19.87;100.00;102063.44;4929609;29;20111;-72
2023/07/10 07:07:36;;;;;;;15.68;2.15;;;;;;;19.89;100.00;102058.75;4936100;29;20047;-72
2023/07/10 07:10:04;;;;;;;9.50;1.95;;;;;;;19.99;100.00;102062.00;4935361;29;20079;-74
2023/07/10 07:12:30;;;;;;;6.57;1.80;;;;;;;19.98;100.00;102062.19;4934384;29;20067;-74
2023/07/10 07:14:56;;;;;;;6.97;1.67;;;;;;;20.01;100.00;102056.50;4904233;29;20424;-70
2023/07/10 07:17:23;;;;;;;8.20;2.00;;;;;;;20.08;100.00;102060.09;4929006;29;20102;-70
2023/07/10 07:19:50;;;;;;;12.10;2.10;;;;;;;20.12;100.00;102062.22;4932721;29;20091;-73
2023/07/10 07:22:16;;;;;;;5.00;1.80;;;;;;;20.19;100.00;102059.69;4925610;29;20461;-70
2023/07/10 07:24:43;;;;;;;7.85;1.85;;;;;;;20.21;100.00;102062.16;4930785;29;20095;-69
2023/07/10 07:27:09;;;;;;;5.50;1.52;;;;;;;20.21;98.86;102065.66;4907169;29;20417;-69
2023/07/10 07:29:36;;;;;;;9.38;1.80;;;;;;;20.22;98.34;102069.16;4926323;29;20043;-70
2023/07/10 07:32:03;;;;;;;10.48;2.15;;;;;;;20.33;100.00;102076.72;4922048;28;20048;-69
2023/07/10 07:34:29;;;;;;;8.43;2.00;;;;;;;20.31;98.80;102078.72;4925157;29;20052;-70
2023/07/10 07:36:56;;;;;;;8.73;2.05;;;;;;;20.40;100.00;102077.63;4927369;29;20087;-70
2023/07/10 07:39:27;;;;;;;7.18;1.80;;;;;;;20.45;100.00;102083.25;4924307;29;20110;-68
2023/07/10 07:41:54;;;;;;;6.90;2.00;;;;;;;20.43;93.79;102082.59;4925892;29;20460;-68
2023/07/10 07:44:20;;;;;;;7.40;1.92;;;;;;;20.42;95.89;102069.47;4915626;29;20071;-69
2023/07/10 07:46:47;;;;;;;7.22;1.90;;;;;;;20.43;94.40;102076.47;4928947;29;20056;-69
2023/07/10 07:49:13;;;;;;;9.88;2.20;;;;;;;20.40;92.33;102068.81;4925170;28;20095;-69
2023/07/10 07:51:40;;;;;;;8.88;2.28;;;;;;;20.44;94.06;102076.25;4929936;29;20473;-69
2023/07/10 07:54:13;;;;;;;11.05;2.50;;;;;;;20.47;96.37;102072.41;4930697;29;20056;-69
2023/07/10 07:56:39;;;;;;;8.05;1.98;;;;;;;20.59;100.00;102078.13;4903629;29;20123;-69
2023/07/10 07:59:06;;;;;;;8.75;2.20;;;;;;;20.54;93.94;102078.66;4925830;29;20134;-70
2023/07/10 08:01:33;;;;;;;8.35;2.00;;;;;;;20.60;95.08;102078.00;4921010;29;20055;-68
2023/07/10 08:03:59;;;;;;;7.45;1.70;;;;;;;20.70;97.33;102072.38;4930467;29;20054;-69
2023/07/10 08:06:28;;;;;;;9.02;1.67;;;;;;;20.83;98.41;102067.22;4920621;29;20055;-69
2023/07/10 08:08:54;;;;;;;;;;;;;;;20.93;98.43;102066.94;4929559;29;20056;-69
2023/07/10 08:11:21;;;;;;;5.80;1.38;;;;;;;21.01;97.71;102068.69;4923629;29;20291;-69
2023/07/10 08:13:48;;;;;;;10.77;2.13;;;;;;;20.99;95.94;102058.19;4923989;28;20113;-69
2023/07/10 08:16:15;;;;;;;10.50;2.28;;;;;;;20.98;93.21;102066.41;4929811;29;20075;-69
2023/07/10 08:18:42;;;;;;;6.35;2.03;;;;;;;20.93;93.56;102074.94;4924124;28;20055;-68
2023/07/10 08:21:11;;;;;;;6.53;1.60;;;;;;;20.91;94.97;102059.16;4924047;29;20083;-69
2023/07/10 08:23:38;;;;;;;6.35;1.90;;;;;;;20.97;100.00;102062.06;4917910;29;20047;-69
2023/07/10 08:26:05;;;;;;;8.05;1.77;;;;;;;21.08;95.96;102061.59;4929980;29;20108;-68
2023/07/10 08:28:32;;;;;;;5.72;1.60;;;;;;;21.14;99.13;102056.34;4929284;29;20519;-69
2023/07/10 08:30:59;;;;;;;9.32;2.25;;;;;;;21.12;96.21;102062.88;4923419;29;20052;-68
2023/07/10 08:33:26;;;;;;;9.40;2.13;;;;;;;21.18;97.00;102059.47;4933312;29;20694;-69
2023/07/10 08:35:55;;;;;;;10.98;2.17;;;;;;;21.24;96.49;102064.06;4920464;29;20103;-69
2023/07/10 08:38:22;;;;;;;7.35;2.00;;;;;;;21.52;98.55;102055.34;4907379;29;20047;-69
2023/07/10 08:40:51;;;;;;;10.68;2.40;;;;;;;21.75;93.17;102060.53;4917982;29;20056;-69
2023/07/10 08:43:34;;;;;;;6.95;2.00;;;;;;;21.98;89.21;102063.00;4929670;29;20102;-69
2023/07/10 08:46:06;;;;;;;6.53;2.22;;;;;;;22.16;83.42;102069.75;4925828;29;20083;-68
2023/07/10 08:48:48;;;;;;;9.23;2.10;;;;;;;22.39;83.78;102075.72;4928547;29;20075;-69
2023/07/10 08:51:20;;;;;;;9.80;2.25;;;;;;;22.60;81.16;102073.97;4915587;29;20094;-69
2023/07/10 08:53:57;;;;;;;13.25;2.30;;;;;;;22.92;84.54;102067.19;4912229;29;20047;-69
2023/07/10 08:56:52;;;;;;;9.95;1.90;;;;;;;23.23;82.12;102073.94;4930515;29;20059;-69
2023/07/10 08:59:48;;;;;;;9.68;2.20;;;;;;;23.38;76.85;102076.44;4920610;29;20740;-69
2023/07/10 09:02:42;;;;;;;8.65;2.35;;;;;;;23.69;79.74;102067.88;4933551;29;20088;-68
2023/07/10 09:05:24;;;;;;;6.95;1.90;;;;;;;24.10;77.19;102069.59;4921384;29;20551;-69
2023/07/10 09:07:51;;;;;;;6.80;1.80;;;;;;;24.50;77.34;102066.03;4913377;29;20065;-69
2023/07/10 09:10:31;;;;;;;9.52;2.03;;;;;;;24.76;70.06;102071.38;4924214;29;20104;-69
2023/07/10 09:13:01;;;;;;;7.97;2.13;;;;;;;24.71;70.33;102076.56;4932517;29;20166;-69
2023/07/10 09:15:47;;;;;;;8.07;2.35;;;;;;;24.68;68.52;102066.25;4924819;29;20055;-69
2023/07/10 09:18:38;;;;;;;7.97;1.90;;;;;;;24.78;69.93;102076.56;4914079;29;20098;-68
2023/07/10 09:21:17;;;;;;;6.38;1.83;;;;;;;24.73;70.78;102076.34;4924495;29;20070;-68
2023/07/10 09:23:45;;;;;;;5.97;1.88;;;;;;;25.03;68.82;102071.28;4930307;29;20638;-69
2023/07/10 09:26:20;;;;;;;7.28;2.05;;;;;;;25.18;70.57;102079.09;4923232;29;20234;-69
2023/07/10 09:29:21;;;;;;;9.77;2.50;;;;;;;25.42;69.76;102066.78;4930096;29;20060;-68
2023/07/10 09:32:12;;;;;;;8.70;1.92;;;;;;;24.98;65.33;102079.97;4922688;28;20055;-68
2023/07/10 09:34:51;;;;;;;7.70;1.92;;;;;;;25.35;69.60;102080.28;4925760;29;20055;-69
2023/07/10 09:37:21;;;;;;;7.75;2.30;;;;;;;25.35;63.18;102079.44;4932658;29;20074;-69
2023/07/10 09:39:48;;;;;;;8.63;2.58;;;;;;;25.38;65.13;102074.44;4928731;29;20058;-69
2023/07/10 09:42:20;;;;;;;7.80;2.35;;;;;;;25.30;61.87;102071.19;4929034;29;20553;-68
2023/07/10 09:44:51;;;;;;;8.43;2.22;;;;;;;25.35;63.01;102066.03;4918362;29;20058;-69
2023/07/10 09:47:19;;;;;;;8.77;2.10;;;;;;;25.62;64.51;102074.75;4925426;29;20492;-68
2023/07/10 09:49:52;;;;;;;5.90;1.90;;;;;;;25.46;61.50;102068.00;4922835;29;20093;-68
2023/07/10 09:52:21;;;;;;;7.78;2.30;;;;;;;25.65;63.06;102067.06;4932295;29;20043;-69
2023/07/10 09:54:48;;;;;;;8.88;1.90;;;;;;;25.64;62.41;102075.38;4923803;29;20511;-69
2023/07/10 09:57:17;;;;;;;9.52;2.28;;;;;;;25.99;64.32;102067.69;4911207;29;20142;-69
2023/07/10 09:59:52;;;;;;;6.78;2.20;;;;;;;26.24;63.05;102064.97;4927580;29;20059;-69
2023/07/10 10:02:26;;;;;;;7.75;1.85;;;;;;;26.52;61.46;102066.38;4920475;29;20461;-69
2023/07/10 10:05:14;;;;;;;6.43;1.63;;;;;;;26.69;62.30;102057.72;4938887;29;20048;-69
2023/07/10 10:07:43;;;;;;;7.07;2.08;;;;;;;26.95;59.66;102062.81;4926779;29;20106;-69
2023/07/10 10:10:32;;;;;;;7.75;2.33;;;;;;;26.71;55.92;102067.22;4915326;29;20055;-68
2023/07/10 10:12:58;;;;;;;6.82;1.73;;;;;;;26.53;58.86;102059.94;4926184;29;20051;-69
2023/07/10 10:15:38;;;;;;;9.18;2.05;;;;;;;26.21;56.95;102064.63;4927437;29;20099;-69
2023/07/10 10:18:16;;;;;;;10.40;2.10;;;;;;;26.30;56.27;102068.63;4921938;29;20138;-69
2023/07/10 10:20:44;;;;;;;7.40;1.80;;;;;;;26.47;59.38;102058.13;4930726;29;20048;-69
2023/07/10 10:23:29;;;;;;;10.23;2.50;;;;;;;26.88;58.16;102053.19;4924284;29;20047;-69
2023/07/10 10:26:21;;;;;;;7.93;1.92;;;;;;;26.79;55.87;102064.22;4925445;29;20323;-69
2023/07/10 10:28:56;;;;;;;6.70;2.03;;;;;;;26.57;57.64;102061.13;4904085;29;20054;-70
2023/07/10 10:31:30;;;;;;;7.20;2.33;;;;;;;26.94;57.64;102055.78;4929113;29;20135;-70
2023/07/10 10:34:12;;;;;;;7.22;2.00;;;;;;;26.81;54.25;102061.31;4928270;29;20048;-70
2023/07/10 10:36:38;;;;;;;9.35;2.30;;;;;;;26.59;54.03;102063.63;4924999;29;20138;-69
2023/07/10 10:39:17;;;;;;;6.85;2.15;;;;;;;26.32;55.71;102063.88;4930615;29;20056;-69
2023/07/10 10:41:50;;;;;;;7.45;2.25;;;;;;;26.61;57.15;102069.63;4915615;29;20106;-70
2023/07/10 10:44:43;;;;;;;7.30;2.03;;;;;;;26.67;56.73;102074.09;4922648;29;20138;-70
2023/07/10 10:47:31;;;;;;;6.80;2.08;;;;;;;26.33;55.45;102070.91;4921793;29;20051;-70
2023/07/10 10:50:02;;;;;;;6.28;1.70;;;;;;;26.60;56.51;102071.50;4925736;29;20054;-70
2023/07/10 10:52:54;;;;;;;6.80;2.08;;;;;;;26.92;56.98;102071.34;4924649;29;20142;-69
2023/07/10 10:55:24;;;;;;;8.73;2.40;;;;;;;26.77;53.57;102074.38;4918904;29;20051;-70
2023/07/10 10:58:02;;;;;;;9.25;2.40;;;;;;;26.85;54.92;102069.75;4923062;28;20110;-69
2023/07/10 11:00:50;;;;;;;8.27;2.17;;;;;;;26.99;53.47;102061.31;4933863;29;20055;-68
2023/07/10 11:03:32;;;;;;;7.60;2.10;;;;;;;26.52;53.97;102063.69;4922332;29;20056;-69
2023/07/10 11:06:19;;;;;;;8.98;2.30;;;;;;;26.86;53.74;102058.78;4934980;29;20047;-70
2023/07/10 11:08:50;;;;;;;8.85;2.45;;;;;;;26.87;53.97;102062.28;4919630;29;20052;-69
2023/07/10 11:11:28;;;;;;;7.35;2.00;;;;;;;26.98;54.81;102061.53;4923779;29;20058;-69
2023/07/10 11:13:55;;;;;;;6.72;2.42;;;;;;;27.26;54.25;102055.59;4929920;29;20424;-69
2023/07/10 11:16:23;;;;;;;8.63;2.78;;;;;;;27.07;53.70;102062.03;4922827;29;20467;-69
2023/07/10 11:18:50;;;;;;;;;;;;;;;27.25;53.82;102061.19;4930579;29;20701;-69
2023/07/10 11:21:16;;;;;;;7.25;2.17;;;;;;;27.23;52.61;102061.41;4919486;28;19926;-69
2023/07/10 11:23:43;;;;;;;8.00;2.40;;;;;;;27.12;53.10;102065.69;4920275;29;20165;-69
2023/07/10 11:26:15;;;;;;;10.85;3.22;;;;;;;27.15;53.45;102065.25;4922022;28;20107;-69
2023/07/10 11:29:16;;;;;;;12.02;2.40;;;;;;;26.98;54.38;102070.41;4925158;29;20683;-70
2023/07/10 11:31:52;;;;;;;11.27;2.20;;;;;;;27.21;54.95;102058.13;4919900;29;20151;-69